createdAt,value
2023-05-18T00:02:07.178Z,65.72
2023-05-18T00:04:36.437Z,66.40
2023-05-18T00:07:05.547Z,66.52
2023-05-18T00:09:36.561Z,65.97
2023-05-18T00:12:06.284Z,65.74
2023-05-18T00:14:34.444Z,65.55
2023-05-18T00:17:03.391Z,65.95
2023-05-18T00:19:31.754Z,65.62
2023-05-18T00:22:02.473Z,65.56
2023-05-18T00:24:30.924Z,64.70
2023-05-18T00:26:59.280Z,64.72
2023-05-18T00:29:28.221Z,64.81
2023-05-18T00:31:56.683Z,65.31
2023-05-18T00:34:24.748Z,64.98
2023-05-18T00:36:53.347Z,63.95
2023-05-18T00:39:21.351Z,65.20
2023-05-18T00:41:49.780Z,64.98
2023-05-18T00:44:17.795Z,64.44
2023-05-18T00:46:46.104Z,63.79
2023-05-18T00:49:14.478Z,63.72
2023-05-18T00:51:43.370Z,63.70
2023-05-18T00:54:11.715Z,63.83
2023-05-18T00:56:46.509Z,63.18
2023-05-18T00:59:15.760Z,62.04
2023-05-18T01:01:45.056Z,62.34
2023-05-18T01:04:16.295Z,63.15
2023-05-18T01:06:46.730Z,62.99
2023-05-18T01:09:16.584Z,62.29
2023-05-18T01:11:57.378Z,61.65
2023-05-18T01:14:33.505Z,60.81
2023-05-18T01:17:36.616Z,60.52
2023-05-18T01:20:20.960Z,59.93
2023-05-18T01:23:12.177Z,59.94
2023-05-18T01:25:55.731Z,59.08
2023-05-18T01:28:31.293Z,60.29
2023-05-18T01:31:00.159Z,59.38
2023-05-18T01:33:28.570Z,59.22
2023-05-18T01:35:56.657Z,59.21
2023-05-18T01:38:28.857Z,59.41
2023-05-18T01:41:02.498Z,58.99
2023-05-18T01:43:35.187Z,58.04
2023-05-18T01:46:23.402Z,58.28
2023-05-18T01:49:00.681Z,58.87
2023-05-18T01:51:34.368Z,58.44
2023-05-18T01:54:08.411Z,58.54
2023-05-18T01:56:41.334Z,58.25
2023-05-18T01:59:11.465Z,58.12
2023-05-18T02:01:39.603Z,57.86
2023-05-18T02:04:11.281Z,57.59
2023-05-18T02:06:39.738Z,57.84
2023-05-18T02:09:10.330Z,57.73
2023-05-18T02:11:38.909Z,57.73
2023-05-18T02:14:07.381Z,58.12
2023-05-18T02:16:35.386Z,57.88
2023-05-18T02:19:03.811Z,58.01
2023-05-18T02:21:34.865Z,58.50
2023-05-18T02:24:05.115Z,58.67
2023-05-18T02:26:33.122Z,59.11
2023-05-18T02:29:01.624Z,59.08
2023-05-18T02:31:31.313Z,58.00
2023-05-18T02:34:03.009Z,57.51
2023-05-18T02:36:43.011Z,57.11
2023-05-18T02:39:11.422Z,56.77
2023-05-18T02:41:39.467Z,57.27
2023-05-18T02:44:07.880Z,57.00
2023-05-18T02:46:35.864Z,56.90
2023-05-18T02:49:04.487Z,56.73
2023-05-18T02:51:32.721Z,56.16
2023-05-18T02:54:02.269Z,55.66
2023-05-18T02:56:33.123Z,56.54
2023-05-18T02:59:11.882Z,56.55
2023-05-18T03:01:43.485Z,56.94
2023-05-18T03:04:14.252Z,56.93
2023-05-18T03:06:53.188Z,56.71
2023-05-18T03:09:23.824Z,56.71
2023-05-18T03:11:54.889Z,56.08
2023-05-18T03:14:23.364Z,55.72
2023-05-18T03:16:54.641Z,56.13
2023-05-18T03:19:27.340Z,56.12
2023-05-18T03:21:55.577Z,56.33
2023-05-18T03:24:26.766Z,56.28
2023-05-18T03:26:55.396Z,56.69
2023-05-18T03:29:24.457Z,57.60
2023-05-18T03:31:53.568Z,57.16
2023-05-18T03:34:21.935Z,56.84
2023-05-18T03:36:52.847Z,57.37
2023-05-18T03:39:22.029Z,57.41
2023-05-18T03:41:50.082Z,57.31
2023-05-18T03:44:18.799Z,56.99
2023-05-18T03:46:46.976Z,56.86
2023-05-18T03:49:15.437Z,56.96
2023-05-18T03:51:44.410Z,56.71
2023-05-18T03:54:12.821Z,55.89
2023-05-18T03:56:41.271Z,56.14
2023-05-18T03:59:09.637Z,55.90
2023-05-18T04:01:38.445Z,55.75
2023-05-18T04:04:07.797Z,55.50
2023-05-18T04:06:36.118Z,54.99
2023-05-18T04:09:04.623Z,55.30
2023-05-18T04:11:32.713Z,54.93
2023-05-18T04:14:01.301Z,53.74
2023-05-18T04:16:29.412Z,53.42
2023-05-18T04:18:57.861Z,53.81
2023-05-18T04:21:26.104Z,52.24
2023-05-18T04:23:54.398Z,52.58
2023-05-18T04:26:22.399Z,52.29
2023-05-18T04:28:52.767Z,51.93
2023-05-18T04:31:20.714Z,50.81
2023-05-18T04:33:51.530Z,51.39
2023-05-18T04:36:21.301Z,50.97
2023-05-18T04:38:52.038Z,50.32
2023-05-18T04:41:23.341Z,50.16
2023-05-18T04:43:53.987Z,50.18
2023-05-18T04:46:22.529Z,50.14
2023-05-18T04:48:51.170Z,49.36
2023-05-18T04:51:22.797Z,49.51
2023-05-18T04:53:51.688Z,48.90
2023-05-18T04:56:23.258Z,48.51
2023-05-18T04:58:51.757Z,48.52
2023-05-18T05:01:19.740Z,48.52
2023-05-18T05:03:49.917Z,48.79
2023-05-18T05:06:17.859Z,48.40
2023-05-18T05:08:46.210Z,47.74
2023-05-18T05:11:14.115Z,47.59
2023-05-18T05:13:42.414Z,47.15
2023-05-18T05:16:11.383Z,47.32
2023-05-18T05:18:39.680Z,47.24
2023-05-18T05:21:09.277Z,47.61
2023-05-18T05:23:37.505Z,47.13
2023-05-18T05:26:05.589Z,46.87
2023-05-18T05:28:33.845Z,46.29
2023-05-18T05:31:01.832Z,46.48
2023-05-18T05:33:31.538Z,46.36
2023-05-18T05:35:59.439Z,46.31
2023-05-18T05:38:27.667Z,46.68
2023-05-18T05:40:56.335Z,46.80
2023-05-18T05:43:24.892Z,47.54
2023-05-18T05:45:52.916Z,47.71
2023-05-18T05:48:21.521Z,46.37
2023-05-18T05:50:49.662Z,45.27
2023-05-18T05:53:20.001Z,45.63
2023-05-18T05:55:49.950Z,45.41
2023-05-18T05:58:19.666Z,45.12
2023-05-18T06:00:52.523Z,44.17
2023-05-18T06:03:22.111Z,45.30
2023-05-18T06:05:50.827Z,44.24
2023-05-18T06:08:24.380Z,43.94
2023-05-18T06:10:55.930Z,43.46
2023-05-18T06:13:26.191Z,43.53
2023-05-18T06:15:58.805Z,43.92
2023-05-18T06:18:27.480Z,43.67
2023-05-18T06:21:01.503Z,43.79
2023-05-18T06:23:30.330Z,43.54
2023-05-18T06:26:04.418Z,43.16
2023-05-18T06:28:51.334Z,42.33
2023-05-18T06:31:30.716Z,40.30
2023-05-18T06:34:34.423Z,41.11
2023-05-18T06:37:02.476Z,40.13
2023-05-18T06:39:31.054Z,40.65
2023-05-18T06:41:59.487Z,39.50
2023-05-18T06:44:35.373Z,39.25
2023-05-18T06:47:08.706Z,38.49
2023-05-18T06:49:37.279Z,38.44
2023-05-18T06:52:06.218Z,38.58
2023-05-18T06:54:34.874Z,39.02
2023-05-18T06:57:03.001Z,39.66
2023-05-18T06:59:32.524Z,39.17
2023-05-18T07:02:00.688Z,39.41
2023-05-18T07:04:29.051Z,39.34
2023-05-18T07:06:57.016Z,38.08
2023-05-18T07:09:26.166Z,36.36
2023-05-18T07:11:54.273Z,37.83
2023-05-18T07:14:22.646Z,36.62
2023-05-18T07:16:50.692Z,36.52
2023-05-18T07:19:18.993Z,36.86
2023-05-18T07:21:47.005Z,36.07
2023-05-18T07:24:15.295Z,36.90
2023-05-18T07:26:43.298Z,36.87
2023-05-18T07:29:11.956Z,36.81
2023-05-18T07:31:41.537Z,36.97
2023-05-18T07:34:09.850Z,35.45
2023-05-18T07:36:37.865Z,37.42
2023-05-18T07:39:06.285Z,36.99
2023-05-18T07:41:34.313Z,36.46
2023-05-18T07:44:02.616Z,36.58
2023-05-18T07:46:30.788Z,36.38
2023-05-18T07:48:59.136Z,35.53
2023-05-18T07:51:27.019Z,35.22
2023-05-18T07:53:55.382Z,34.55
2023-05-18T07:56:24.346Z,35.15
2023-05-18T07:58:52.868Z,35.41
2023-05-18T08:01:22.629Z,35.46
2023-05-18T08:03:51.494Z,35.30
2023-05-18T08:06:19.608Z,35.10
2023-05-18T08:08:47.981Z,35.04
2023-05-18T08:11:16.349Z,35.38
2023-05-18T08:13:44.746Z,36.30
2023-05-18T08:16:12.778Z,35.65
2023-05-18T08:18:41.374Z,35.83
2023-05-18T08:21:10.303Z,35.55
2023-05-18T08:23:39.289Z,35.54
2023-05-18T08:26:10.078Z,35.31
2023-05-18T08:28:39.771Z,35.12
2023-05-18T08:31:08.157Z,35.87
2023-05-18T08:33:36.465Z,36.36
2023-05-18T08:36:04.909Z,36.24
2023-05-18T08:38:33.441Z,36.54
2023-05-18T08:41:23.801Z,36.04
2023-05-18T08:44:01.502Z,36.09
2023-05-18T08:46:51.312Z,38.14
2023-05-18T08:49:22.061Z,36.99
2023-05-18T08:51:59.461Z,37.75
2023-05-18T08:54:28.488Z,37.15
2023-05-18T08:56:57.501Z,35.85
2023-05-18T08:59:28.006Z,35.87
2023-05-18T09:01:56.343Z,35.48
2023-05-18T09:04:25.088Z,37.07
2023-05-18T09:06:55.009Z,38.01
2023-05-18T09:09:25.506Z,37.62
2023-05-18T09:11:56.053Z,38.17
2023-05-18T09:14:26.314Z,37.86
2023-05-18T09:16:54.859Z,36.90
2023-05-18T09:19:25.044Z,36.70
2023-05-18T09:21:53.132Z,37.75
2023-05-18T09:24:24.390Z,38.23
2023-05-18T09:26:53.473Z,37.21
2023-05-18T09:29:24.439Z,36.38
2023-05-18T09:31:54.685Z,35.72
2023-05-18T09:34:24.813Z,35.94
2023-05-18T09:36:57.995Z,37.12
2023-05-18T09:39:26.347Z,38.98
2023-05-18T09:41:58.092Z,38.29
2023-05-18T09:44:33.049Z,38.11
2023-05-18T09:47:02.638Z,38.13
2023-05-18T09:49:31.693Z,37.16
2023-05-18T09:52:02.807Z,38.06
2023-05-18T09:54:31.174Z,37.48
2023-05-18T09:57:10.331Z,37.07
2023-05-18T09:59:40.780Z,37.55
2023-05-18T10:02:13.399Z,37.56
2023-05-18T10:04:43.585Z,37.16
2023-05-18T10:07:16.661Z,38.07
2023-05-18T10:09:46.478Z,37.92
2023-05-18T10:12:17.446Z,39.32
2023-05-18T10:14:46.843Z,38.85
2023-05-18T10:17:17.321Z,38.75
2023-05-18T10:19:47.221Z,38.85
2023-05-18T10:22:18.457Z,38.86
2023-05-18T10:24:52.727Z,38.43
2023-05-18T10:27:27.783Z,38.53
2023-05-18T10:29:59.515Z,37.81
2023-05-18T10:32:29.839Z,38.45
2023-05-18T10:35:00.660Z,38.29
2023-05-18T10:37:32.034Z,38.55
2023-05-18T10:40:01.047Z,36.31
2023-05-18T10:42:30.891Z,35.37
2023-05-18T10:45:02.026Z,34.34
2023-05-18T10:47:30.437Z,33.47
2023-05-18T10:50:04.414Z,35.20
2023-05-18T10:52:34.216Z,34.03
2023-05-18T10:55:04.615Z,35.53
2023-05-18T10:57:47.080Z,34.90
2023-05-18T11:00:16.667Z,34.63
2023-05-18T11:02:45.510Z,34.53
2023-05-18T11:05:14.063Z,33.55
2023-05-18T11:07:46.520Z,34.27
2023-05-18T11:10:14.977Z,32.81
2023-05-18T11:12:43.475Z,32.35
2023-05-18T11:15:12.098Z,34.31
2023-05-18T11:17:40.129Z,36.87
2023-05-18T11:20:09.243Z,36.32
2023-05-18T11:23:03.154Z,35.23
2023-05-18T11:25:34.489Z,35.01
2023-05-18T11:28:05.970Z,35.17
2023-05-18T11:30:34.540Z,37.04
2023-05-18T11:33:23.078Z,37.18
2023-05-18T11:35:57.557Z,35.30
2023-05-18T11:38:54.522Z,33.54
2023-05-18T11:41:35.248Z,34.25
2023-05-18T11:44:10.405Z,33.87
2023-05-18T11:46:51.478Z,33.34
2023-05-18T11:49:23.444Z,33.44
2023-05-18T11:52:04.982Z,33.52
2023-05-18T11:54:55.779Z,32.45
2023-05-18T11:57:42.207Z,31.66
2023-05-18T12:00:12.366Z,33.07
2023-05-18T12:02:46.683Z,34.19
2023-05-18T12:05:15.520Z,35.86
2023-05-18T12:07:45.335Z,33.97
2023-05-18T12:10:15.135Z,34.75
2023-05-18T12:12:45.058Z,36.68
2023-05-18T12:15:16.532Z,36.26
2023-05-18T12:17:48.165Z,33.78
2023-05-18T12:20:18.290Z,32.66
2023-05-18T12:22:52.386Z,32.28
2023-05-18T12:25:22.207Z,33.42
2023-05-18T12:27:52.906Z,33.64
2023-05-18T12:30:35.942Z,33.27
2023-05-18T12:33:05.049Z,34.46
2023-05-18T12:35:33.607Z,34.47
2023-05-18T12:38:03.019Z,35.13
2023-05-18T12:40:45.007Z,34.53
2023-05-18T12:43:13.679Z,33.84
2023-05-18T12:45:44.800Z,33.21
2023-05-18T12:48:15.199Z,34.07
2023-05-18T12:50:48.248Z,34.93
2023-05-18T12:53:17.899Z,34.26
2023-05-18T12:55:45.999Z,34.34
2023-05-18T12:58:19.092Z,33.04
2023-05-18T13:00:49.036Z,33.56
2023-05-18T13:03:20.478Z,33.49
2023-05-18T13:06:03.822Z,32.98
2023-05-18T13:08:32.913Z,33.62
2023-05-18T13:11:13.434Z,33.03
2023-05-18T13:13:59.832Z,32.62
2023-05-18T13:16:30.814Z,32.16
2023-05-18T13:19:04.373Z,31.38
2023-05-18T13:21:33.435Z,30.37
2023-05-18T13:24:03.644Z,31.79
2023-05-18T13:26:31.869Z,31.34
2023-05-18T13:29:00.553Z,31.33
2023-05-18T13:31:30.121Z,31.13
2023-05-18T13:33:58.600Z,29.86
2023-05-18T13:36:26.704Z,29.94
2023-05-18T13:38:55.633Z,29.51
2023-05-18T13:41:23.717Z,28.58
2023-05-18T13:43:52.102Z,28.19
2023-05-18T13:46:20.565Z,28.54
2023-05-18T13:48:49.098Z,30.32
2023-05-18T13:51:17.289Z,30.34
2023-05-18T13:53:45.907Z,32.68
2023-05-18T13:56:14.147Z,30.62
2023-05-18T13:58:44.102Z,29.14
2023-05-18T14:01:13.857Z,28.27
2023-05-18T14:03:42.674Z,28.70
2023-05-18T14:06:11.008Z,28.81
2023-05-18T14:08:39.789Z,28.51
2023-05-18T14:11:07.921Z,28.88
2023-05-18T14:13:36.452Z,27.33
2023-05-18T14:16:04.785Z,29.46
2023-05-18T14:18:33.267Z,32.35
2023-05-18T14:21:03.710Z,31.00
2023-05-18T14:23:32.196Z,30.67
2023-05-18T14:26:00.328Z,31.36
2023-05-18T14:28:30.363Z,33.37
2023-05-18T14:30:59.723Z,31.62
2023-05-18T14:33:28.187Z,32.41
2023-05-18T14:35:57.422Z,30.91
2023-05-18T14:38:27.482Z,30.32
2023-05-18T14:40:55.705Z,29.17
2023-05-18T14:43:24.035Z,29.98
2023-05-18T14:46:06.856Z,29.76
2023-05-18T14:48:37.333Z,27.80
2023-05-18T14:51:05.427Z,28.14
2023-05-18T14:53:33.795Z,30.82
2023-05-18T14:56:06.349Z,31.01
2023-05-18T14:58:36.227Z,30.69
2023-05-18T15:01:04.349Z,30.67
2023-05-18T15:03:32.922Z,31.15
2023-05-18T15:06:01.153Z,30.96
2023-05-18T15:08:29.672Z,30.87
2023-05-18T15:10:57.870Z,31.65
2023-05-18T15:13:26.232Z,31.26
2023-05-18T15:15:54.455Z,30.86
2023-05-18T15:18:22.885Z,31.09
2023-05-18T15:20:50.942Z,30.36
2023-05-18T15:23:19.302Z,29.79
2023-05-18T15:25:47.474Z,30.26
2023-05-18T15:28:15.965Z,31.34
2023-05-18T15:30:44.179Z,31.08
2023-05-18T15:33:12.601Z,30.79
2023-05-18T15:35:40.782Z,30.77
2023-05-18T15:38:09.207Z,30.39
2023-05-18T15:40:37.413Z,30.81
2023-05-18T15:43:05.926Z,30.97
2023-05-18T15:45:34.197Z,31.75
2023-05-18T15:48:02.606Z,31.09
2023-05-18T15:50:31.309Z,30.19
2023-05-18T15:52:59.765Z,30.62
2023-05-18T15:55:28.416Z,30.52
2023-05-18T15:57:57.285Z,30.03
2023-05-18T16:00:26.811Z,30.00
2023-05-18T16:02:55.333Z,30.87
2023-05-18T16:05:23.457Z,31.68
2023-05-18T16:07:51.827Z,31.90
2023-05-18T16:10:19.936Z,33.07
2023-05-18T16:12:48.288Z,32.19
2023-05-18T16:15:16.338Z,32.87
2023-05-18T16:17:44.799Z,32.35
2023-05-18T16:20:13.837Z,32.21
2023-05-18T16:22:42.248Z,32.47
2023-05-18T16:25:10.319Z,33.16
2023-05-18T16:27:39.149Z,32.86
2023-05-18T16:30:07.818Z,33.24
2023-05-18T16:32:36.167Z,33.15
2023-05-18T16:35:05.103Z,33.59
2023-05-18T16:37:33.616Z,33.60
2023-05-18T16:40:01.575Z,33.47
2023-05-18T16:42:29.938Z,33.78
2023-05-18T16:44:58.256Z,34.00
2023-05-18T16:47:27.859Z,34.21
2023-05-18T16:49:55.887Z,33.65
2023-05-18T16:52:24.185Z,34.41
2023-05-18T16:54:52.297Z,34.34
2023-05-18T16:57:21.415Z,34.36
2023-05-18T16:59:49.538Z,34.65
2023-05-18T17:02:18.348Z,34.35
2023-05-18T17:04:46.544Z,34.59
2023-05-18T17:07:15.717Z,35.28
2023-05-18T17:09:43.994Z,35.23
2023-05-18T17:12:12.943Z,35.29
2023-05-18T17:14:41.013Z,35.46
2023-05-18T17:17:09.514Z,35.47
2023-05-18T17:19:39.526Z,35.17
2023-05-18T17:22:09.810Z,35.65
2023-05-18T17:24:39.189Z,37.05
2023-05-18T17:27:08.075Z,40.16
2023-05-18T17:29:36.394Z,40.16
2023-05-18T17:32:05.230Z,40.70
2023-05-18T17:34:33.388Z,40.03
2023-05-18T17:37:01.762Z,40.28
2023-05-18T17:39:29.729Z,41.30
2023-05-18T17:42:00.556Z,41.22
2023-05-18T17:44:28.621Z,41.57
2023-05-18T17:46:57.692Z,41.48
2023-05-18T17:49:25.809Z,41.41
2023-05-18T17:51:54.308Z,41.79
2023-05-18T17:54:22.700Z,41.59
2023-05-18T17:56:51.384Z,41.91
2023-05-18T17:59:19.277Z,42.57
2023-05-18T18:01:47.533Z,41.94
2023-05-18T18:04:15.754Z,41.63
2023-05-18T18:06:45.841Z,42.07
2023-05-18T18:09:14.001Z,42.02
2023-05-18T18:11:42.429Z,42.48
2023-05-18T18:14:11.754Z,41.55
2023-05-18T18:16:40.299Z,42.45
2023-05-18T18:19:08.870Z,42.54
2023-05-18T18:21:37.429Z,42.41
2023-05-18T18:24:05.720Z,42.74
2023-05-18T18:26:38.889Z,42.90
2023-05-18T18:29:07.598Z,42.98
2023-05-18T18:31:36.097Z,42.60
2023-05-18T18:34:04.261Z,43.21
2023-05-18T18:36:32.704Z,44.09
2023-05-18T18:39:00.884Z,44.93
2023-05-18T18:41:29.223Z,43.85
2023-05-18T18:43:57.477Z,43.40
2023-05-18T18:46:25.947Z,44.25
2023-05-18T18:48:54.043Z,43.95
2023-05-18T18:51:22.476Z,43.73
2023-05-18T18:53:50.537Z,43.70
2023-05-18T18:56:19.160Z,44.82
2023-05-18T18:58:47.469Z,45.25
2023-05-18T19:01:16.165Z,44.90
2023-05-18T19:03:44.711Z,45.23
2023-05-18T19:06:15.005Z,45.25
2023-05-18T19:08:43.186Z,45.53
2023-05-18T19:11:11.766Z,45.72
2023-05-18T19:13:39.797Z,46.19
2023-05-18T19:16:09.168Z,44.95
2023-05-18T19:18:37.889Z,45.25
2023-05-18T19:21:06.537Z,45.11
2023-05-18T19:23:34.598Z,45.30
2023-05-18T19:26:03.138Z,46.26
2023-05-18T19:28:31.308Z,47.32
2023-05-18T19:30:59.667Z,47.62
2023-05-18T19:33:27.757Z,47.86
2023-05-18T19:35:56.724Z,46.98
2023-05-18T19:38:25.007Z,47.78
2023-05-18T19:40:53.412Z,47.08
2023-05-18T19:43:21.409Z,47.03
2023-05-18T19:45:50.385Z,46.19
2023-05-18T19:48:18.457Z,46.34
2023-05-18T19:50:46.944Z,45.77
2023-05-18T19:53:14.982Z,44.19
2023-05-18T19:55:43.560Z,43.22
2023-05-18T19:58:11.571Z,43.29
2023-05-18T20:00:41.590Z,42.61
2023-05-18T20:03:09.969Z,42.73
2023-05-18T20:05:38.705Z,42.11
2023-05-18T20:08:08.610Z,42.14
2023-05-18T20:10:37.072Z,43.20
2023-05-18T20:13:05.233Z,43.55
2023-05-18T20:15:37.284Z,43.30
2023-05-18T20:18:06.996Z,43.08
2023-05-18T20:20:36.204Z,43.13
2023-05-18T20:23:06.990Z,43.27
2023-05-18T20:25:36.628Z,42.89
2023-05-18T20:28:07.551Z,43.01
2023-05-18T20:30:36.043Z,44.04
2023-05-18T20:33:04.952Z,43.84
2023-05-18T20:35:34.298Z,43.51
2023-05-18T20:38:04.849Z,44.30
2023-05-18T20:40:33.722Z,44.03
2023-05-18T20:43:02.487Z,44.76
2023-05-18T20:45:31.651Z,45.33
2023-05-18T20:48:00.332Z,44.97
2023-05-18T20:50:29.449Z,45.15
2023-05-18T20:52:57.601Z,44.91
2023-05-18T20:55:25.970Z,44.77
2023-05-18T20:57:53.988Z,44.67
2023-05-18T21:00:22.430Z,45.09
2023-05-18T21:02:50.948Z,44.99
2023-05-18T21:05:19.951Z,45.18
2023-05-18T21:07:49.153Z,45.11
2023-05-18T21:10:17.938Z,44.92
2023-05-18T21:12:46.456Z,45.51
2023-05-18T21:15:14.963Z,45.50
2023-05-18T21:17:43.112Z,46.15
2023-05-18T21:20:12.113Z,46.52
2023-05-18T21:22:40.120Z,47.03
2023-05-18T21:25:09.301Z,46.96
2023-05-18T21:27:37.513Z,46.77
2023-05-18T21:30:06.738Z,46.92
2023-05-18T21:32:34.861Z,46.87
2023-05-18T21:35:03.545Z,47.05
2023-05-18T21:37:31.513Z,47.28
2023-05-18T21:40:00.050Z,47.70
2023-05-18T21:42:28.055Z,48.03
2023-05-18T21:44:56.567Z,47.67
2023-05-18T21:47:24.763Z,46.92
2023-05-18T21:49:53.360Z,46.89
2023-05-18T21:52:21.383Z,46.91
2023-05-18T21:54:49.673Z,46.32
2023-05-18T21:57:17.648Z,46.47
2023-05-18T21:59:46.127Z,46.49
2023-05-18T22:02:14.254Z,46.39
2023-05-18T22:04:42.796Z,46.25
2023-05-18T22:07:11.187Z,46.34
2023-05-18T22:09:39.558Z,46.59
2023-05-18T22:12:07.650Z,46.69
2023-05-18T22:14:36.145Z,46.69
2023-05-18T22:17:05.473Z,47.11
2023-05-18T22:19:33.960Z,47.12
2023-05-18T22:22:01.924Z,47.31
2023-05-18T22:24:30.324Z,47.30
2023-05-18T22:26:58.263Z,47.03
2023-05-18T22:29:26.610Z,46.98
2023-05-18T22:31:54.656Z,47.24
2023-05-18T22:34:23.079Z,47.29
2023-05-18T22:36:51.138Z,47.30
2023-05-18T22:39:19.525Z,47.53
2023-05-18T22:41:47.480Z,46.99
2023-05-18T22:44:15.933Z,47.69
2023-05-18T22:46:44.142Z,47.81
2023-05-18T22:49:12.765Z,48.49
2023-05-18T22:51:41.065Z,48.71
2023-05-18T22:54:09.433Z,49.41
2023-05-18T22:56:37.528Z,49.53
2023-05-18T22:59:07.362Z,49.60
2023-05-18T23:01:38.060Z,50.39
2023-05-18T23:04:06.714Z,50.10
2023-05-18T23:06:34.867Z,50.40
2023-05-18T23:09:03.213Z,50.09
2023-05-18T23:11:31.247Z,50.81
2023-05-18T23:14:02.844Z,50.67
2023-05-18T23:16:31.076Z,50.92
2023-05-18T23:19:01.994Z,50.71
2023-05-18T23:21:31.619Z,50.84
2023-05-18T23:23:59.947Z,50.98
2023-05-18T23:26:28.019Z,50.63
2023-05-18T23:28:56.505Z,50.51
2023-05-18T23:31:24.529Z,50.80
2023-05-18T23:33:53.269Z,50.98
2023-05-18T23:36:21.716Z,50.82
2023-05-18T23:38:51.255Z,50.83
2023-05-18T23:41:19.781Z,50.62
2023-05-18T23:43:48.496Z,50.38
2023-05-18T23:46:17.226Z,50.29
2023-05-18T23:48:46.054Z,50.28
2023-05-18T23:51:17.401Z,50.09
2023-05-18T23:53:47.228Z,50.23
2023-05-18T23:56:16.206Z,49.70
2023-05-18T23:58:46.352Z,49.69
